createdAt,value
2022-12-27T00:01:10.107Z,22.54
2022-12-27T00:03:38.200Z,22.56
2022-12-27T00:06:09.964Z,22.38
2022-12-27T00:08:38.057Z,22.48
2022-12-27T00:11:07.852Z,22.57
2022-12-27T00:13:35.758Z,22.42
2022-12-27T00:16:05.263Z,22.50
2022-12-27T00:18:34.103Z,22.60
2022-12-27T00:21:03.872Z,22.52
2022-12-27T00:23:36.335Z,22.57
2022-12-27T00:26:06.569Z,22.36
2022-12-27T00:28:35.633Z,22.33
2022-12-27T00:31:05.582Z,22.50
2022-12-27T00:33:35.590Z,22.60
2022-12-27T00:36:07.203Z,22.34
2022-12-27T00:38:37.190Z,22.22
2022-12-27T00:41:05.902Z,22.35
2022-12-27T00:43:34.455Z,22.16
2022-12-27T00:46:02.980Z,22.43
2022-12-27T00:48:30.955Z,22.38
2022-12-27T00:51:00.095Z,22.42
2022-12-27T00:53:28.516Z,22.52
2022-12-27T00:55:58.222Z,22.30
2022-12-27T00:58:26.921Z,22.42
2022-12-27T01:00:54.951Z,22.44
2022-12-27T01:03:22.975Z,22.24
2022-12-27T01:05:51.185Z,22.39
2022-12-27T01:08:19.079Z,22.38
2022-12-27T01:10:47.089Z,22.50
2022-12-27T01:13:16.469Z,22.43
2022-12-27T01:15:44.338Z,22.48
2022-12-27T01:18:12.280Z,22.67
2022-12-27T01:20:40.261Z,22.54
2022-12-27T01:23:08.257Z,22.55
2022-12-27T01:25:36.226Z,22.61
2022-12-27T01:28:04.369Z,22.88
2022-12-27T01:30:33.784Z,22.92
2022-12-27T01:33:01.769Z,22.76
2022-12-27T01:35:30.264Z,22.49
2022-12-27T01:37:58.310Z,22.77
2022-12-27T01:40:26.721Z,23.11
2022-12-27T01:42:53.673Z,22.79
2022-12-27T01:45:23.623Z,22.89
2022-12-27T01:47:58.341Z,22.94
2022-12-27T01:50:32.024Z,22.88
2022-12-27T01:53:06.765Z,23.05
2022-12-27T01:55:42.266Z,23.08
2022-12-27T01:58:14.839Z,23.21
2022-12-27T02:00:45.674Z,22.95
2022-12-27T02:03:20.721Z,23.15
2022-12-27T02:05:49.484Z,23.34
2022-12-27T02:08:29.887Z,23.22
2022-12-27T02:10:58.658Z,23.26
2022-12-27T02:13:27.857Z,23.57
2022-12-27T02:15:56.080Z,23.33
2022-12-27T02:18:25.470Z,23.56
2022-12-27T02:21:29.878Z,23.52
2022-12-27T02:24:07.613Z,23.56
2022-12-27T02:26:46.922Z,23.49
2022-12-27T02:29:28.068Z,23.76
2022-12-27T02:32:03.254Z,23.76
2022-12-27T02:34:39.811Z,23.59
2022-12-27T02:37:11.769Z,23.68
2022-12-27T02:39:43.387Z,23.58
2022-12-27T02:42:31.307Z,23.94
2022-12-27T02:45:14.672Z,23.87
2022-12-27T02:48:01.613Z,23.66
2022-12-27T02:51:06.803Z,23.72
2022-12-27T02:53:46.402Z,23.74
2022-12-27T02:56:45.793Z,23.83
2022-12-27T02:59:29.412Z,23.68
2022-12-27T03:02:31.553Z,23.51
2022-12-27T03:05:16.514Z,23.86
2022-12-27T03:07:50.066Z,24.03
2022-12-27T03:10:50.371Z,23.80
2022-12-27T03:13:42.628Z,23.90
2022-12-27T03:16:19.051Z,23.72
2022-12-27T03:19:04.451Z,23.82
2022-12-27T03:21:53.398Z,23.64
2022-12-27T03:24:45.413Z,23.84
2022-12-27T03:27:18.346Z,23.79
2022-12-27T03:30:11.083Z,23.63
2022-12-27T03:33:03.572Z,23.60
2022-12-27T03:35:38.646Z,23.55
2022-12-27T03:38:09.435Z,23.72
2022-12-27T03:41:07.869Z,23.55
2022-12-27T03:43:37.992Z,23.86
2022-12-27T03:46:30.807Z,23.65
2022-12-27T03:49:10.192Z,23.60
2022-12-27T03:51:43.227Z,23.77
2022-12-27T03:54:17.285Z,23.80
2022-12-27T03:56:45.452Z,23.74
2022-12-27T03:59:13.801Z,23.79
2022-12-27T04:01:43.109Z,23.62
2022-12-27T04:04:11.138Z,23.87
2022-12-27T04:06:40.767Z,23.77
2022-12-27T04:09:27.994Z,23.97
2022-12-27T04:12:13.677Z,23.68
2022-12-27T04:14:59.612Z,23.78
2022-12-27T04:17:45.198Z,23.88
2022-12-27T04:20:31.084Z,23.94
2022-12-27T04:23:18.191Z,23.67
2022-12-27T04:26:03.796Z,23.81
2022-12-27T04:28:49.022Z,23.62
2022-12-27T04:31:34.755Z,23.52
2022-12-27T04:34:20.551Z,23.71
2022-12-27T04:36:48.762Z,23.53
2022-12-27T04:39:18.161Z,23.56
2022-12-27T04:42:03.601Z,23.83
2022-12-27T04:44:49.214Z,23.64
2022-12-27T04:47:36.447Z,23.40
2022-12-27T04:50:23.955Z,23.79
2022-12-27T04:53:09.118Z,23.38
2022-12-27T04:55:38.812Z,23.43
2022-12-27T04:58:06.773Z,23.36
2022-12-27T05:00:52.633Z,23.45
2022-12-27T05:03:24.283Z,23.38
2022-12-27T05:05:53.259Z,23.28
2022-12-27T05:08:39.427Z,23.19
2022-12-27T05:11:27.179Z,23.28
2022-12-27T05:14:01.304Z,23.57
2022-12-27T05:16:30.999Z,23.54
2022-12-27T05:18:59.255Z,23.77
2022-12-27T05:21:27.967Z,23.67
2022-12-27T05:24:13.828Z,23.84
2022-12-27T05:26:43.287Z,23.59
2022-12-27T05:29:11.254Z,23.59
2022-12-27T05:31:39.396Z,23.50
2022-12-27T05:34:07.906Z,23.65
2022-12-27T05:36:35.929Z,23.78
2022-12-27T05:39:04.015Z,23.84
2022-12-27T05:41:32.078Z,23.81
2022-12-27T05:44:06.867Z,23.61
2022-12-27T05:46:35.753Z,23.76
2022-12-27T05:49:03.771Z,23.71
2022-12-27T05:51:31.815Z,23.70
2022-12-27T05:53:59.961Z,23.80
2022-12-27T05:56:27.970Z,23.85
2022-12-27T05:58:56.067Z,23.53
2022-12-27T06:01:25.494Z,23.68
2022-12-27T06:03:53.434Z,23.75
2022-12-27T06:06:21.492Z,23.51
2022-12-27T06:08:49.467Z,23.78
2022-12-27T06:11:19.175Z,23.73
2022-12-27T06:13:51.447Z,23.39
2022-12-27T06:16:21.031Z,23.65
2022-12-27T06:18:50.432Z,23.46
2022-12-27T06:21:20.735Z,23.43
2022-12-27T06:23:49.699Z,23.92
2022-12-27T06:26:20.127Z,23.71
2022-12-27T06:28:49.590Z,23.55
2022-12-27T06:31:18.032Z,23.47
2022-12-27T06:33:46.721Z,23.58
2022-12-27T06:36:18.769Z,23.46
2022-12-27T06:38:47.188Z,23.55
2022-12-27T06:41:18.364Z,23.74
2022-12-27T06:43:47.588Z,23.62
2022-12-27T06:46:19.844Z,23.57
2022-12-27T06:48:48.408Z,23.72
2022-12-27T06:51:20.104Z,23.68
2022-12-27T06:53:48.288Z,23.65
2022-12-27T06:56:19.071Z,23.35
2022-12-27T06:58:47.311Z,23.48
2022-12-27T07:01:17.091Z,23.62
2022-12-27T07:03:49.159Z,23.35
2022-12-27T07:06:19.878Z,23.54
2022-12-27T07:08:48.195Z,23.59
2022-12-27T07:11:17.123Z,23.64
2022-12-27T07:13:47.205Z,23.49
2022-12-27T07:16:17.402Z,23.50
2022-12-27T07:18:49.684Z,23.37
2022-12-27T07:21:21.708Z,23.59
2022-12-27T07:23:49.944Z,23.33
2022-12-27T07:26:19.896Z,23.53
2022-12-27T07:28:48.669Z,23.56
2022-12-27T07:31:18.541Z,23.12
2022-12-27T07:33:47.183Z,23.40
2022-12-27T07:36:18.532Z,23.16
2022-12-27T07:38:48.307Z,23.44
2022-12-27T07:41:16.944Z,23.52
2022-12-27T07:43:45.688Z,23.43
2022-12-27T07:46:16.715Z,23.46
2022-12-27T07:48:45.716Z,23.51
2022-12-27T07:51:14.124Z,23.71
2022-12-27T07:53:42.208Z,23.63
2022-12-27T07:56:12.926Z,23.52
2022-12-27T07:58:42.727Z,23.73
2022-12-27T08:01:12.324Z,23.22
2022-12-27T08:03:41.865Z,23.67
2022-12-27T08:06:19.867Z,23.59
2022-12-27T08:08:48.038Z,23.32
2022-12-27T08:11:17.351Z,23.43
2022-12-27T08:13:46.082Z,23.67
2022-12-27T08:16:18.712Z,23.32
2022-12-27T08:18:47.319Z,23.29
2022-12-27T08:21:16.568Z,23.36
2022-12-27T08:23:44.559Z,23.73
2022-12-27T08:26:12.780Z,23.67
2022-12-27T08:28:42.269Z,23.37
2022-12-27T08:31:12.002Z,23.51
2022-12-27T08:33:41.776Z,23.45
2022-12-27T08:36:29.064Z,23.67
2022-12-27T08:38:59.736Z,23.60
2022-12-27T08:41:27.637Z,23.45
2022-12-27T08:43:56.917Z,23.60
2022-12-27T08:46:24.944Z,23.42
2022-12-27T08:48:53.016Z,23.52
2022-12-27T08:51:32.748Z,23.65
2022-12-27T08:54:06.888Z,23.46
2022-12-27T08:56:34.875Z,23.62
2022-12-27T08:59:04.531Z,23.58
2022-12-27T09:01:32.808Z,23.36
2022-12-27T09:04:00.940Z,23.63
2022-12-27T09:06:28.924Z,23.64
2022-12-27T09:08:57.365Z,23.46
2022-12-27T09:11:27.411Z,23.38
2022-12-27T09:13:56.289Z,23.44
2022-12-27T09:16:27.913Z,23.45
2022-12-27T09:18:57.813Z,23.63
2022-12-27T09:21:27.943Z,23.69
2022-12-27T09:23:56.836Z,23.29
2022-12-27T09:26:29.191Z,23.73
2022-12-27T09:28:58.371Z,23.61
2022-12-27T09:31:28.559Z,23.80
2022-12-27T09:33:57.698Z,23.70
2022-12-27T09:36:27.703Z,23.51
2022-12-27T09:38:57.217Z,23.95
2022-12-27T09:44:34.388Z,23.80
2022-12-27T09:47:11.489Z,23.78
2022-12-27T09:49:42.511Z,23.94
2022-12-27T09:52:17.786Z,24.05
2022-12-27T09:55:00.900Z,23.86
2022-12-27T09:57:36.567Z,23.85
2022-12-27T10:00:07.852Z,24.06
2022-12-27T10:02:37.460Z,24.04
2022-12-27T10:05:22.577Z,23.92
2022-12-27T10:08:02.179Z,24.10
2022-12-27T10:10:41.735Z,23.98
2022-12-27T10:13:21.517Z,23.93
2022-12-27T10:15:55.797Z,24.22
2022-12-27T10:18:35.717Z,24.21
2022-12-27T10:21:13.658Z,24.40
2022-12-27T10:23:45.761Z,24.22
2022-12-27T10:26:21.819Z,24.28
2022-12-27T10:28:57.202Z,24.35
2022-12-27T10:31:26.841Z,24.43
2022-12-27T10:33:56.457Z,24.46
2022-12-27T10:36:28.333Z,24.44
2022-12-27T10:38:56.821Z,24.38
2022-12-27T10:41:37.374Z,24.52
2022-12-27T10:44:11.836Z,24.42
2022-12-27T10:46:41.426Z,24.42
2022-12-27T10:54:23.895Z,24.54
2022-12-27T10:56:51.997Z,24.59
2022-12-27T10:59:21.624Z,24.85
2022-12-27T11:01:53.801Z,25.18
2022-12-27T11:04:24.785Z,25.75
2022-12-27T11:07:13.601Z,26.15
2022-12-27T11:09:50.416Z,26.45
2022-12-27T11:12:22.135Z,26.93
2022-12-27T11:14:56.987Z,27.16
2022-12-27T11:17:29.245Z,27.33
2022-12-27T11:20:03.698Z,26.99
2022-12-27T11:22:31.829Z,26.91
2022-12-27T11:25:01.844Z,27.16
2022-12-27T11:27:31.190Z,27.34
2022-12-27T11:30:00.732Z,26.98
2022-12-27T11:32:28.984Z,26.87
2022-12-27T11:34:58.754Z,26.88
2022-12-27T11:37:28.320Z,26.68
2022-12-27T11:40:12.143Z,26.85
2022-12-27T11:42:44.063Z,26.63
2022-12-27T11:45:16.451Z,26.59
2022-12-27T11:47:50.723Z,27.03
2022-12-27T11:50:40.889Z,26.46
2022-12-27T11:53:25.126Z,26.92
2022-12-27T11:56:07.612Z,26.47
2022-12-27T11:58:48.127Z,26.60
2022-12-27T12:01:42.057Z,26.73
2022-12-27T12:04:44.282Z,26.25
2022-12-27T12:07:27.623Z,26.10
2022-12-27T12:10:08.928Z,26.12
2022-12-27T12:12:58.867Z,26.32
2022-12-27T12:16:21.401Z,25.85
2022-12-27T12:19:04.278Z,25.65
2022-12-27T12:21:38.295Z,25.75
2022-12-27T12:24:43.084Z,25.51
2022-12-27T12:27:40.672Z,25.87
2022-12-27T12:30:51.379Z,25.83
2022-12-27T12:33:36.586Z,25.34
2022-12-27T12:36:26.253Z,25.36
2022-12-27T12:39:00.382Z,25.24
2022-12-27T12:41:57.261Z,25.08
2022-12-27T12:44:50.415Z,25.19
2022-12-27T12:47:33.545Z,24.76
2022-12-27T12:50:22.340Z,25.11
2022-12-27T12:53:33.838Z,25.08
2022-12-27T12:56:14.718Z,24.58
2022-12-27T12:58:53.867Z,24.67
2022-12-27T13:01:35.449Z,24.49
2022-12-27T13:04:14.811Z,24.86
2022-12-27T13:07:15.175Z,24.75
2022-12-27T13:09:56.669Z,24.82
2022-12-27T13:12:32.784Z,24.36
2022-12-27T13:15:20.508Z,24.27
2022-12-27T13:18:01.708Z,24.67
2022-12-27T13:20:54.734Z,24.64
2022-12-27T13:23:35.931Z,24.42
2022-12-27T13:26:14.712Z,24.31
2022-12-27T13:28:59.914Z,25.38
2022-12-27T13:31:39.339Z,25.33
2022-12-27T13:34:22.307Z,26.85
2022-12-27T13:37:10.845Z,28.46
2022-12-27T13:39:49.194Z,29.20
2022-12-27T13:42:45.386Z,29.89
2022-12-27T13:45:32.052Z,31.37
2022-12-27T13:48:21.087Z,31.61
2022-12-27T13:51:12.634Z,32.15
2022-12-27T13:54:17.575Z,32.21
2022-12-27T13:56:54.844Z,35.02
2022-12-27T14:00:02.635Z,36.71
2022-12-27T14:03:01.818Z,37.33
2022-12-27T14:06:03.216Z,36.94
2022-12-27T14:08:54.054Z,36.35
2022-12-27T14:11:36.212Z,35.58
2022-12-27T14:14:06.575Z,34.78
2022-12-27T14:16:57.568Z,34.29
2022-12-27T14:20:08.400Z,33.04
2022-12-27T14:22:57.554Z,32.70
2022-12-27T14:26:04.016Z,31.80
2022-12-27T14:29:08.066Z,31.03
2022-12-27T14:31:58.506Z,30.70
2022-12-27T14:34:59.740Z,29.91
2022-12-27T14:37:59.302Z,29.62
2022-12-27T14:40:51.396Z,28.98
2022-12-27T14:44:00.864Z,28.91
2022-12-27T14:46:58.444Z,28.41
2022-12-27T14:49:54.888Z,28.22
2022-12-27T14:52:54.795Z,27.58
2022-12-27T14:55:41.377Z,27.07
2022-12-27T14:58:28.436Z,26.77
2022-12-27T15:01:07.366Z,26.43
2022-12-27T15:03:54.585Z,26.47
2022-12-27T15:06:44.819Z,26.20
2022-12-27T15:09:24.867Z,25.75
2022-12-27T15:12:05.778Z,25.72
2022-12-27T15:14:50.239Z,25.62
2022-12-27T15:17:31.194Z,25.44
2022-12-27T15:20:27.048Z,25.04
2022-12-27T15:23:08.292Z,25.03
2022-12-27T15:25:52.567Z,24.69
2022-12-27T15:28:32.518Z,24.56
2022-12-27T15:31:07.607Z,24.73
2022-12-27T15:33:42.085Z,24.74
2022-12-27T15:36:15.023Z,24.60
2022-12-27T15:38:53.386Z,24.69
2022-12-27T15:41:32.575Z,24.47
2022-12-27T15:44:19.008Z,24.80
2022-12-27T15:47:20.247Z,24.93
2022-12-27T15:50:02.319Z,25.27
2022-12-27T15:52:39.241Z,25.37
2022-12-27T15:55:22.770Z,25.12
2022-12-27T15:58:05.798Z,25.20
2022-12-27T16:00:35.898Z,25.41
2022-12-27T16:03:25.254Z,25.07
2022-12-27T16:05:54.529Z,25.05
2022-12-27T16:08:32.250Z,25.37
2022-12-27T16:11:01.390Z,25.51
2022-12-27T16:13:45.588Z,25.30
2022-12-27T16:16:55.914Z,25.36
2022-12-27T16:20:02.679Z,25.35
2022-12-27T16:22:44.673Z,25.25
2022-12-27T16:25:32.688Z,25.33
2022-12-27T16:28:06.111Z,25.00
2022-12-27T16:30:45.187Z,24.79
2022-12-27T16:33:28.516Z,25.14
2022-12-27T16:36:14.466Z,24.94
2022-12-27T16:38:49.672Z,24.79
2022-12-27T16:41:32.498Z,25.13
2022-12-27T16:44:16.492Z,24.69
2022-12-27T16:47:03.508Z,24.70
2022-12-27T16:49:55.470Z,24.58
2022-12-27T16:52:58.402Z,24.90
2022-12-27T16:55:59.427Z,24.59
2022-12-27T16:58:36.057Z,24.37
2022-12-27T17:01:05.617Z,24.44
2022-12-27T17:03:49.227Z,24.82
2022-12-27T17:06:55.845Z,24.41
2022-12-27T17:09:44.720Z,24.68
2022-12-27T17:12:35.011Z,24.69
2022-12-27T17:15:06.571Z,24.19
2022-12-27T17:17:35.953Z,24.36
2022-12-27T17:20:07.622Z,24.45
2022-12-27T17:22:41.330Z,23.92
2022-12-27T17:25:17.152Z,24.34
2022-12-27T17:28:01.035Z,23.85
2022-12-27T17:30:44.880Z,23.77
2022-12-27T17:33:23.193Z,23.83
2022-12-27T17:36:05.676Z,23.77
2022-12-27T17:38:45.377Z,23.62
2022-12-27T17:41:46.973Z,23.85
2022-12-27T17:44:38.009Z,23.47
2022-12-27T17:47:19.655Z,23.45
2022-12-27T17:49:48.217Z,23.54
2022-12-27T17:52:35.431Z,23.42
2022-12-27T17:55:35.412Z,23.57
2022-12-27T17:58:07.104Z,23.88
2022-12-27T18:00:40.198Z,23.80
2022-12-27T18:03:10.145Z,23.49
2022-12-27T18:05:43.213Z,23.97
2022-12-27T18:08:23.440Z,23.42
2022-12-27T18:10:51.798Z,23.41
2022-12-27T18:13:21.850Z,23.73
2022-12-27T18:15:52.310Z,23.62
2022-12-27T18:18:25.361Z,23.55
2022-12-27T18:20:57.288Z,23.90
2022-12-27T18:23:25.345Z,23.56
2022-12-27T18:25:57.125Z,23.62
2022-12-27T18:28:32.637Z,23.93
2022-12-27T18:31:08.043Z,24.02
2022-12-27T18:33:41.227Z,23.66
2022-12-27T18:36:12.151Z,23.74
2022-12-27T18:38:43.027Z,23.82
2022-12-27T18:41:14.422Z,23.71
2022-12-27T18:43:46.281Z,23.59
2022-12-27T18:46:18.428Z,23.49
2022-12-27T18:48:46.648Z,23.21
2022-12-27T18:51:15.135Z,23.34
2022-12-27T18:53:45.696Z,23.54
2022-12-27T18:56:29.241Z,22.97
2022-12-27T18:59:02.207Z,23.24
2022-12-27T19:01:39.551Z,23.07
2022-12-27T19:04:23.308Z,22.96
2022-12-27T19:06:56.204Z,22.82
2022-12-27T19:09:27.793Z,22.73
2022-12-27T19:11:58.249Z,22.98
2022-12-27T19:14:27.499Z,22.81
2022-12-27T19:17:00.499Z,23.04
2022-12-27T19:19:32.388Z,22.90
2022-12-27T19:22:00.410Z,22.91
2022-12-27T19:24:34.881Z,22.93
2022-12-27T19:27:16.947Z,23.34
2022-12-27T19:29:52.451Z,22.92
2022-12-27T19:32:27.372Z,23.27
2022-12-27T19:34:59.472Z,23.41
2022-12-27T19:37:29.178Z,23.38
2022-12-27T19:39:58.711Z,23.04
2022-12-27T19:42:29.092Z,22.86
2022-12-27T19:44:57.151Z,22.79
2022-12-27T19:47:27.529Z,23.22
2022-12-27T19:49:55.564Z,22.67
2022-12-27T19:52:25.860Z,22.70
2022-12-27T19:54:59.424Z,22.65
2022-12-27T19:57:27.449Z,22.55
2022-12-27T19:59:56.472Z,22.67
2022-12-27T20:02:26.039Z,22.67
2022-12-27T20:04:54.075Z,22.52
2022-12-27T20:07:24.781Z,22.84
2022-12-27T20:09:52.818Z,22.37
2022-12-27T20:12:20.839Z,22.48
2022-12-27T20:14:48.830Z,22.73
2022-12-27T20:17:16.854Z,22.32
2022-12-27T20:19:46.318Z,22.43
2022-12-27T20:22:14.333Z,22.21
2022-12-27T20:24:42.369Z,22.17
2022-12-27T20:27:10.424Z,22.48
2022-12-27T20:29:38.473Z,22.31
2022-12-27T20:32:06.950Z,22.34
2022-12-27T20:34:34.962Z,22.13
2022-12-27T20:37:05.127Z,22.31
2022-12-27T20:39:33.096Z,21.77
2022-12-27T20:42:01.327Z,22.11
2022-12-27T20:44:29.325Z,22.17
2022-12-27T20:46:57.548Z,21.92
2022-12-27T20:49:25.915Z,22.16
2022-12-27T20:51:53.926Z,22.13
2022-12-27T20:54:23.395Z,21.73
2022-12-27T20:56:51.414Z,22.11
2022-12-27T20:59:19.441Z,21.89
2022-12-27T21:01:51.597Z,21.91
2022-12-27T21:04:22.962Z,21.76
2022-12-27T21:06:50.886Z,21.87
2022-12-27T21:09:18.870Z,21.64
2022-12-27T21:11:52.191Z,21.27
2022-12-27T21:14:20.553Z,21.44
2022-12-27T21:16:48.577Z,21.13
2022-12-27T21:19:16.778Z,20.86
2022-12-27T21:21:44.876Z,20.48
2022-12-27T21:24:12.897Z,20.25
2022-12-27T21:26:42.306Z,20.40
2022-12-27T21:29:12.268Z,20.26
2022-12-27T21:31:40.243Z,20.21
2022-12-27T21:34:08.234Z,19.94
2022-12-27T21:36:36.750Z,19.50
2022-12-27T21:39:05.802Z,19.69
2022-12-27T21:41:35.908Z,19.25
2022-12-27T21:44:04.604Z,19.45
2022-12-27T21:46:35.443Z,19.31
2022-12-27T21:49:05.546Z,19.71
2022-12-27T21:51:35.184Z,19.15
2022-12-27T21:54:03.786Z,19.18
2022-12-27T21:56:32.274Z,19.10
2022-12-27T21:59:03.006Z,19.30
2022-12-27T22:01:51.546Z,19.18
2022-12-27T22:04:20.906Z,19.19
2022-12-27T22:06:49.083Z,19.46
2022-12-27T22:09:19.013Z,19.31
2022-12-27T22:11:47.130Z,19.17
2022-12-27T22:14:15.109Z,19.50
2022-12-27T22:16:44.520Z,18.91
2022-12-27T22:19:13.899Z,19.12
2022-12-27T22:21:42.527Z,18.92
2022-12-27T22:24:13.122Z,19.14
2022-12-27T22:26:42.247Z,19.20
2022-12-27T22:29:10.217Z,18.80
2022-12-27T22:31:39.363Z,19.23
2022-12-27T22:34:08.664Z,19.04
2022-12-27T22:36:36.565Z,19.17
2022-12-27T22:39:05.808Z,18.62
2022-12-27T22:41:35.922Z,18.99
2022-12-27T22:44:06.018Z,18.89
2022-12-27T22:49:24.058Z,19.16
2022-12-27T22:51:51.978Z,19.10
2022-12-27T22:54:20.033Z,19.00
2022-12-27T22:56:47.973Z,19.01
2022-12-27T22:59:17.660Z,18.64
2022-12-27T23:01:46.497Z,18.91
2022-12-27T23:04:15.634Z,18.94
2022-12-27T23:06:45.319Z,18.99
2022-12-27T23:09:13.263Z,18.92
2022-12-27T23:11:42.751Z,18.80
2022-12-27T23:14:13.437Z,18.74
2022-12-27T23:16:42.653Z,18.65
2022-12-27T23:19:11.529Z,18.92
2022-12-27T23:21:39.800Z,18.98
2022-12-27T23:24:10.876Z,19.04
2022-12-27T23:26:39.486Z,19.06
2022-12-27T23:29:08.134Z,18.90
2022-12-27T23:31:36.198Z,18.68
2022-12-27T23:34:27.690Z,19.24
2022-12-27T23:36:57.012Z,19.17
2022-12-27T23:39:26.403Z,18.83
2022-12-27T23:41:54.651Z,19.19
2022-12-27T23:44:33.485Z,18.99
2022-12-27T23:47:03.356Z,18.87
2022-12-27T23:49:31.395Z,18.84
2022-12-27T23:51:59.391Z,18.66
2022-12-27T23:54:28.751Z,19.04
2022-12-27T23:56:56.743Z,19.01
2022-12-27T23:59:24.721Z,19.15
